Aérodrome :
LOGIN :

S'inscrire | Disclaimer

   EN    FR    IT 

 










Légende :    VFR   VFR Marginal   IFR   IFR Intensif   IFR Très Intensif
Visi : 
Plafond : 
>= 8 km
>= 3000ft
5 à 8 km
1000 à 3000 ft
1500m à 5 km
500 à 1000 ft
800 à 1500m
200 à 500 ft
< 800m
< 200 ft
Symboles :   Orages  Brouillard  Fortes neiges  Fortes précipitations  Vent > 20 kt
SIGMETs :   Divers  Orages  Givrage  Turbulence  Onde Orograph.  Cendres Volcan.






- Altitude de l'aérodrome : 7 ft
- Code IATA : ESH


EGKA - Shoreham

DERNIER METAR :
  • 291050Z 18013KT 3500 -RADZ BR BKN006 10/09 Q1004 RERA REDZ

METARs EXPIRÉS :
  • 291020Z 18014KT 4500 RADZ BKN007 10/09 Q1004
  • 290950Z 19014KT 8000 -RADZ FEW008 BKN010 10/09 Q1005 RERA
  • 290920Z 19014KT 9999 -RADZ BKN016 BKN037 10/09 Q1005
  • 290850Z 19013KT 9999 -RA FEW010 SCT019 BKN037 10/09 Q1005
  • 290820Z 19014KT 9999 FEW009 SCT011 BKN021 10/09 Q1006
  • 290750Z 18014KT 8000 SCT007 BKN010 10/09 Q1006

TAF TAF EGKA
Valide du 29 à 09h jusqu'au 29 à 18h UTC


290828Z 2909/2918 20012KT 9999 SCT010 BKN020
TEMPO 2909/2918 6000 -RADZ
PROB30
TEMPO 2909/2916 4000 +RA BKN007
BECMG 2912/2915 32005KT
ATIS : +44 1273 467 372



MET'MAP, la Météo Aéronautique d'un coup d'oeil ! - Copyright ORBIFLY Décembre 2007 - Disclaimer

ORBIFLY MET'MAP TEAM :

Programmation & Développement : Alexandra Zaïnal
Sur une idée originale de : Baudouin d'Aumeries
Soutien technique & logistique : Manuel Goepfert
Assistance : Marc-Olivier Méhu




SOURCES & CREDITS :

   NOAA